createdAt,value
2023-06-11T00:01:53.100Z,17.81
2023-06-11T00:04:25.628Z,17.82
2023-06-11T00:06:54.662Z,17.79
2023-06-11T00:09:26.158Z,17.77
2023-06-11T00:11:54.651Z,17.75
2023-06-11T00:14:23.148Z,17.72
2023-06-11T00:16:50.555Z,17.69
2023-06-11T00:19:18.328Z,17.67
2023-06-11T00:21:45.115Z,17.67
2023-06-11T00:24:15.824Z,17.60
2023-06-11T00:26:42.766Z,17.59
2023-06-11T00:29:09.990Z,17.46
2023-06-11T00:31:36.594Z,17.54
2023-06-11T00:34:03.492Z,17.53
2023-06-11T00:36:30.726Z,17.36
2023-06-11T00:38:57.802Z,17.18
2023-06-11T00:41:28.120Z,17.41
2023-06-11T00:43:55.456Z,17.54
2023-06-11T00:46:23.187Z,17.32
2023-06-11T00:48:51.379Z,17.28
2023-06-11T00:51:27.305Z,17.25
2023-06-11T00:53:54.615Z,17.15
2023-06-11T00:56:21.360Z,17.08
2023-06-11T00:58:49.908Z,16.97
2023-06-11T01:01:26.323Z,16.83
2023-06-11T01:03:57.413Z,16.95
2023-06-11T01:06:29.469Z,16.91
2023-06-11T01:08:58.769Z,16.79
2023-06-11T01:11:28.370Z,16.82
2023-06-11T01:13:55.343Z,16.54
2023-06-11T01:16:39.032Z,16.73
2023-06-11T01:19:31.733Z,16.69
2023-06-11T01:22:01.561Z,16.54
2023-06-11T01:24:41.268Z,16.61
2023-06-11T01:27:10.762Z,16.58
2023-06-11T01:29:40.102Z,16.53
2023-06-11T01:32:07.205Z,16.50
2023-06-11T01:34:33.675Z,16.46
2023-06-11T01:37:01.108Z,16.42
2023-06-11T01:39:27.640Z,16.37
2023-06-11T01:41:55.854Z,16.34
2023-06-11T01:44:23.252Z,16.31
2023-06-11T01:46:49.779Z,16.28
2023-06-11T01:49:16.290Z,16.23
2023-06-11T01:51:43.234Z,16.18
2023-06-11T01:54:09.693Z,16.16
2023-06-11T01:56:36.287Z,15.76
2023-06-11T01:59:02.738Z,16.06
2023-06-11T02:01:33.927Z,16.00
2023-06-11T02:04:00.706Z,15.93
2023-06-11T02:06:27.366Z,15.92
2023-06-11T02:08:53.823Z,15.82
2023-06-11T02:11:20.331Z,15.46
2023-06-11T02:13:46.747Z,15.75
2023-06-11T02:16:16.109Z,15.79
2023-06-11T02:18:42.700Z,15.47
2023-06-11T02:21:09.165Z,15.65
2023-06-11T02:23:35.708Z,15.52
2023-06-11T02:26:02.170Z,15.65
2023-06-11T02:28:28.589Z,15.62
2023-06-11T02:30:55.045Z,15.54
2023-06-11T02:33:21.800Z,15.51
2023-06-11T02:35:48.388Z,15.54
2023-06-11T02:38:14.842Z,15.51
2023-06-11T02:40:41.590Z,15.37
2023-06-11T02:43:08.452Z,15.47
2023-06-11T02:45:36.020Z,15.47
2023-06-11T02:48:02.805Z,15.44
2023-06-11T02:50:29.296Z,15.42
2023-06-11T02:52:55.725Z,15.39
2023-06-11T02:55:22.199Z,15.40
2023-06-11T02:57:48.688Z,15.35
2023-06-11T03:00:15.381Z,15.37
2023-06-11T03:02:41.838Z,15.33
2023-06-11T03:05:09.174Z,15.34
2023-06-11T03:07:35.885Z,15.35
2023-06-11T03:10:02.374Z,15.36
2023-06-11T03:12:28.857Z,15.37
2023-06-11T03:14:55.330Z,15.39
2023-06-11T03:17:21.806Z,15.42
2023-06-11T03:19:48.966Z,15.45
2023-06-11T03:22:15.487Z,15.43
2023-06-11T03:24:42.336Z,15.57
2023-06-11T03:27:09.951Z,15.62
2023-06-11T03:29:36.438Z,15.68
2023-06-11T03:32:03.010Z,15.59
2023-06-11T03:34:29.480Z,15.80
2023-06-11T03:36:56.149Z,15.90
2023-06-11T03:39:22.628Z,15.87
2023-06-11T03:41:49.202Z,16.02
2023-06-11T03:44:16.323Z,16.09
2023-06-11T03:46:43.132Z,16.15
2023-06-11T03:49:09.639Z,16.22
2023-06-11T03:51:36.930Z,16.28
2023-06-11T03:54:03.435Z,16.30
2023-06-11T03:56:30.037Z,16.34
2023-06-11T03:58:56.473Z,16.39
2023-06-11T04:01:22.970Z,16.46
2023-06-11T04:03:49.538Z,16.40
2023-06-11T04:06:17.800Z,16.32
2023-06-11T04:08:44.291Z,16.59
2023-06-11T04:11:10.910Z,16.63
2023-06-11T04:13:37.443Z,16.68
2023-06-11T04:16:06.842Z,16.73
2023-06-11T04:18:33.818Z,16.77
2023-06-11T04:21:00.428Z,16.66
2023-06-11T04:23:27.053Z,16.70
2023-06-11T04:25:54.872Z,16.85
2023-06-11T04:28:22.388Z,16.87
2023-06-11T04:30:49.994Z,16.92
2023-06-11T04:33:16.917Z,16.94
2023-06-11T04:35:44.314Z,16.93
2023-06-11T04:38:11.687Z,16.84
2023-06-11T04:40:38.447Z,17.02
2023-06-11T04:43:04.883Z,17.05
2023-06-11T04:45:31.322Z,17.08
2023-06-11T04:47:57.834Z,16.84
2023-06-11T04:50:25.952Z,17.14
2023-06-11T04:52:53.322Z,17.16
2023-06-11T04:55:22.690Z,17.18
2023-06-11T04:57:50.355Z,17.26
2023-06-11T05:00:17.252Z,17.27
2023-06-11T05:02:46.037Z,17.31
2023-06-11T05:05:14.275Z,17.37
2023-06-11T05:07:41.308Z,17.41
2023-06-11T05:10:08.348Z,17.28
2023-06-11T05:12:34.892Z,17.49
2023-06-11T05:15:01.370Z,17.55
2023-06-11T05:17:28.649Z,17.51
2023-06-11T05:19:55.204Z,17.62
2023-06-11T05:22:21.871Z,17.66
2023-06-11T05:24:48.739Z,17.79
2023-06-11T05:27:16.140Z,17.86
2023-06-11T05:29:45.947Z,17.89
2023-06-11T05:32:12.903Z,18.17
2023-06-11T05:34:40.797Z,17.96
2023-06-11T05:37:07.601Z,18.14
2023-06-11T05:39:34.125Z,18.21
2023-06-11T05:42:00.602Z,18.28
2023-06-11T05:44:27.053Z,18.19
2023-06-11T05:46:53.787Z,18.42
2023-06-11T05:49:20.503Z,18.52
2023-06-11T05:51:46.978Z,18.55
2023-06-11T05:54:13.428Z,18.69
2023-06-11T05:56:39.944Z,18.54
2023-06-11T05:59:06.457Z,18.86
2023-06-11T06:01:34.362Z,18.96
2023-06-11T06:04:01.299Z,19.08
2023-06-11T06:06:28.532Z,19.20
2023-06-11T06:08:55.053Z,19.25
2023-06-11T06:11:21.556Z,19.46
2023-06-11T06:13:48.043Z,19.48
2023-06-11T06:16:15.152Z,19.78
2023-06-11T06:18:43.417Z,19.91
2023-06-11T06:21:09.868Z,20.01
2023-06-11T06:23:36.393Z,20.11
2023-06-11T06:26:04.158Z,20.21
2023-06-11T06:28:31.657Z,20.20
2023-06-11T06:30:58.507Z,20.44
2023-06-11T06:33:25.165Z,20.57
2023-06-11T06:35:51.651Z,20.73
2023-06-11T06:38:18.090Z,20.87
2023-06-11T06:40:44.496Z,20.99
2023-06-11T06:43:10.940Z,21.11
2023-06-11T06:45:39.178Z,21.21
2023-06-11T06:48:06.182Z,21.32
2023-06-11T06:50:32.805Z,21.46
2023-06-11T06:53:01.957Z,21.50
2023-06-11T06:55:28.395Z,21.69
2023-06-11T06:57:54.824Z,21.91
2023-06-11T07:00:21.602Z,22.03
2023-06-11T07:02:48.555Z,22.18
2023-06-11T07:05:15.267Z,22.36
2023-06-11T07:07:43.560Z,22.22
2023-06-11T07:10:11.082Z,22.54
2023-06-11T07:12:37.948Z,22.68
2023-06-11T07:15:05.298Z,22.77
2023-06-11T07:17:31.817Z,22.75
2023-06-11T07:19:58.365Z,23.00
2023-06-11T07:22:24.830Z,22.93
2023-06-11T07:24:51.367Z,23.21
2023-06-11T07:27:17.814Z,23.35
2023-06-11T07:29:44.402Z,23.50
2023-06-11T07:32:11.104Z,23.70
2023-06-11T07:34:37.836Z,23.85
2023-06-11T07:37:04.518Z,24.00
2023-06-11T07:39:31.280Z,24.14
2023-06-11T07:41:57.700Z,24.05
2023-06-11T07:44:24.230Z,24.45
2023-06-11T07:46:50.779Z,24.60
2023-06-11T07:49:17.411Z,24.71
2023-06-11T07:51:46.088Z,24.87
2023-06-11T07:54:12.800Z,24.97
2023-06-11T07:56:39.315Z,25.10
2023-06-11T07:59:06.014Z,25.20
2023-06-11T08:01:32.522Z,25.31
2023-06-11T08:03:59.293Z,25.41
2023-06-11T08:06:25.798Z,25.49
2023-06-11T08:08:53.351Z,25.61
2023-06-11T08:11:19.840Z,25.74
2023-06-11T08:13:46.844Z,25.85
2023-06-11T08:16:13.488Z,25.90
2023-06-11T08:18:39.933Z,25.98
2023-06-11T08:21:06.698Z,26.02
2023-06-11T08:23:36.446Z,26.10
2023-06-11T08:26:03.841Z,26.12
2023-06-11T08:28:30.328Z,26.00
2023-06-11T08:30:57.373Z,26.17
2023-06-11T08:33:24.570Z,26.24
2023-06-11T08:35:51.298Z,26.20
2023-06-11T08:38:17.721Z,26.37
2023-06-11T08:40:44.339Z,26.22
2023-06-11T08:43:11.543Z,26.53
2023-06-11T08:45:38.367Z,26.58
2023-06-11T08:48:06.724Z,26.70
2023-06-11T08:50:33.290Z,26.79
2023-06-11T08:53:03.259Z,26.89
2023-06-11T08:55:30.319Z,27.29
2023-06-11T08:57:56.781Z,27.18
2023-06-11T09:00:23.591Z,27.27
2023-06-11T09:02:51.968Z,27.37
2023-06-11T09:05:18.437Z,27.46
2023-06-11T09:07:54.172Z,27.44
2023-06-11T09:10:21.642Z,27.60
2023-06-11T09:12:48.486Z,27.92
2023-06-11T09:15:17.010Z,28.07
2023-06-11T09:17:46.110Z,28.30
2023-06-11T09:20:14.742Z,28.79
2023-06-11T09:22:43.855Z,29.11
2023-06-11T09:25:17.574Z,29.53
2023-06-11T09:27:46.538Z,29.82
2023-06-11T09:30:20.959Z,30.13
2023-06-11T09:32:49.284Z,30.49
2023-06-11T09:35:20.269Z,30.81
2023-06-11T09:37:51.372Z,30.95
2023-06-11T09:40:20.805Z,31.05
2023-06-11T09:42:49.340Z,31.31
2023-06-11T09:45:20.339Z,31.31
2023-06-11T09:47:48.900Z,31.72
2023-06-11T09:50:19.610Z,31.75
2023-06-11T09:52:46.889Z,32.04
2023-06-11T09:55:14.557Z,32.25
2023-06-11T09:57:42.004Z,32.40
2023-06-11T10:00:13.134Z,32.70
2023-06-11T10:02:41.150Z,32.75
2023-06-11T10:05:09.619Z,33.10
2023-06-11T10:07:43.531Z,33.17
2023-06-11T10:10:12.794Z,33.44
2023-06-11T10:12:39.573Z,33.60
2023-06-11T10:15:11.053Z,33.73
2023-06-11T10:17:37.717Z,33.79
2023-06-11T10:20:04.769Z,33.88
2023-06-11T10:22:35.455Z,34.06
2023-06-11T10:25:05.539Z,34.18
2023-06-11T10:27:40.707Z,34.35
2023-06-11T10:30:08.616Z,34.27
2023-06-11T10:32:35.779Z,34.41
2023-06-11T10:35:05.739Z,34.44
2023-06-11T10:37:35.021Z,34.62
2023-06-11T10:40:01.464Z,35.20
2023-06-11T10:42:30.064Z,34.84
2023-06-11T10:45:00.156Z,34.91
2023-06-11T10:47:28.658Z,34.98
2023-06-11T10:50:27.376Z,35.21
2023-06-11T10:53:06.988Z,35.17
2023-06-11T10:55:35.326Z,35.20
2023-06-11T10:58:02.907Z,35.12
2023-06-11T11:00:33.820Z,35.32
2023-06-11T11:03:04.846Z,35.10
2023-06-11T11:05:32.030Z,35.39
2023-06-11T11:08:02.143Z,35.49
2023-06-11T11:10:29.653Z,35.56
2023-06-11T11:12:56.398Z,35.49
2023-06-11T11:15:22.981Z,35.60
2023-06-11T11:17:51.284Z,35.65
2023-06-11T11:20:20.446Z,35.72
2023-06-11T11:22:55.358Z,35.92
2023-06-11T11:25:29.127Z,35.88
2023-06-11T11:27:56.494Z,35.97
2023-06-11T11:30:23.521Z,35.94
2023-06-11T11:32:51.006Z,35.95
2023-06-11T11:35:17.838Z,35.80
2023-06-11T11:37:48.941Z,35.81
2023-06-11T11:40:22.163Z,35.85
2023-06-11T11:42:51.585Z,35.88
2023-06-11T11:45:19.327Z,35.78
2023-06-11T11:47:51.728Z,35.89
2023-06-11T11:50:31.187Z,36.14
2023-06-11T11:53:13.157Z,36.33
2023-06-11T11:55:56.670Z,36.16
2023-06-11T11:58:38.495Z,36.31
2023-06-11T12:01:09.730Z,36.30
2023-06-11T12:03:38.380Z,36.20
2023-06-11T12:06:09.543Z,36.31
2023-06-11T12:08:37.785Z,36.15
2023-06-11T12:11:07.790Z,36.13
2023-06-11T12:13:35.533Z,35.78
2023-06-11T12:16:04.595Z,35.95
2023-06-11T12:18:31.518Z,36.10
2023-06-11T12:20:57.953Z,36.13
2023-06-11T12:23:24.488Z,36.02
2023-06-11T12:25:51.142Z,36.10
2023-06-11T12:28:18.750Z,36.26
2023-06-11T12:30:45.282Z,36.27
2023-06-11T12:33:11.943Z,36.39
2023-06-11T12:35:38.772Z,36.25
2023-06-11T12:38:06.153Z,36.33
2023-06-11T12:40:32.669Z,36.42
2023-06-11T12:43:00.402Z,36.38
2023-06-11T12:45:28.337Z,36.39
2023-06-11T12:47:56.152Z,36.18
2023-06-11T12:50:26.970Z,36.13
2023-06-11T12:52:55.883Z,36.10
2023-06-11T12:55:22.503Z,36.07
2023-06-11T12:57:49.975Z,36.05
2023-06-11T13:00:17.063Z,36.08
2023-06-11T13:02:45.110Z,35.83
2023-06-11T13:05:12.025Z,35.88
2023-06-11T13:07:38.587Z,35.79
2023-06-11T13:10:05.856Z,35.73
2023-06-11T13:12:33.131Z,35.55
2023-06-11T13:15:00.010Z,35.22
2023-06-11T13:17:27.060Z,35.37
2023-06-11T13:19:55.678Z,35.25
2023-06-11T13:22:22.729Z,35.19
2023-06-11T13:24:49.380Z,35.12
2023-06-11T13:27:18.968Z,35.12
2023-06-11T13:29:45.517Z,35.16
2023-06-11T13:32:12.250Z,35.12
2023-06-11T13:34:38.889Z,34.98
2023-06-11T13:37:05.727Z,34.84
2023-06-11T13:39:33.795Z,34.80
2023-06-11T13:42:00.807Z,34.63
2023-06-11T13:44:27.234Z,34.84
2023-06-11T13:46:53.848Z,34.87
2023-06-11T13:49:20.315Z,34.98
2023-06-11T13:51:46.889Z,35.03
2023-06-11T13:54:13.754Z,35.05
2023-06-11T13:56:40.483Z,35.13
2023-06-11T13:59:07.511Z,35.08
2023-06-11T14:01:34.095Z,34.98
2023-06-11T14:04:00.643Z,35.14
2023-06-11T14:06:27.410Z,35.21
2023-06-11T14:08:54.035Z,35.15
2023-06-11T14:11:20.776Z,35.25
2023-06-11T14:13:47.397Z,34.90
2023-06-11T14:16:14.016Z,35.18
2023-06-11T14:18:40.598Z,35.19
2023-06-11T14:21:07.205Z,35.14
2023-06-11T14:23:33.819Z,35.04
2023-06-11T14:26:00.419Z,34.98
2023-06-11T14:28:26.866Z,34.86
2023-06-11T14:30:53.833Z,34.73
2023-06-11T14:33:21.286Z,34.72
2023-06-11T14:35:48.045Z,34.72
2023-06-11T14:38:14.727Z,34.55
2023-06-11T14:40:41.700Z,34.83
2023-06-11T14:43:08.212Z,34.77
2023-06-11T14:45:34.623Z,34.71
2023-06-11T14:48:02.215Z,34.85
2023-06-11T14:50:28.709Z,34.74
2023-06-11T14:52:55.207Z,34.63
2023-06-11T14:55:21.741Z,34.59
2023-06-11T14:57:48.219Z,34.58
2023-06-11T15:00:15.509Z,34.50
2023-06-11T15:02:42.346Z,34.38
2023-06-11T15:05:09.151Z,33.69
2023-06-11T15:07:36.271Z,34.07
2023-06-11T15:10:08.806Z,33.97
2023-06-11T15:12:35.640Z,33.95
2023-06-11T15:15:02.522Z,33.82
2023-06-11T15:17:33.392Z,33.81
2023-06-11T15:20:00.574Z,33.67
2023-06-11T15:22:27.208Z,33.33
2023-06-11T15:24:54.573Z,33.60
2023-06-11T15:27:21.206Z,33.54
2023-06-11T15:29:49.189Z,33.51
2023-06-11T15:32:18.392Z,33.44
2023-06-11T15:34:45.398Z,33.28
2023-06-11T15:37:11.966Z,33.24
2023-06-11T15:39:38.407Z,33.28
2023-06-11T15:42:05.108Z,33.09
2023-06-11T15:44:32.168Z,32.86
2023-06-11T15:46:59.105Z,32.97
2023-06-11T15:49:25.590Z,32.92
2023-06-11T15:51:52.255Z,32.87
2023-06-11T15:54:18.750Z,32.83
2023-06-11T15:56:47.762Z,32.82
2023-06-11T15:59:15.224Z,32.83
2023-06-11T16:01:43.326Z,32.87
2023-06-11T16:04:10.508Z,32.70
2023-06-11T16:06:37.216Z,33.02
2023-06-11T16:09:03.852Z,33.02
2023-06-11T16:11:30.418Z,32.99
2023-06-11T16:13:58.428Z,32.93
2023-06-11T16:16:24.985Z,32.88
2023-06-11T16:18:51.500Z,32.83
2023-06-11T16:21:18.136Z,32.78
2023-06-11T16:23:44.679Z,32.48
2023-06-11T16:26:11.314Z,32.67
2023-06-11T16:28:37.892Z,32.61
2023-06-11T16:31:04.435Z,32.39
2023-06-11T16:33:43.845Z,32.44
2023-06-11T16:36:18.438Z,32.43
2023-06-11T16:38:45.043Z,32.30
2023-06-11T16:41:11.785Z,32.30
2023-06-11T16:43:40.033Z,32.35
2023-06-11T16:46:07.748Z,32.61
2023-06-11T16:48:34.381Z,32.32
2023-06-11T16:51:03.601Z,32.20
2023-06-11T16:53:30.172Z,32.13
2023-06-11T16:55:56.716Z,32.02
2023-06-11T16:58:23.283Z,31.90
2023-06-11T17:00:49.751Z,31.81
2023-06-11T17:03:16.420Z,31.46
2023-06-11T17:05:43.010Z,31.74
2023-06-11T17:08:09.524Z,31.61
2023-06-11T17:10:36.444Z,31.53
2023-06-11T17:13:03.115Z,31.30
2023-06-11T17:15:29.615Z,31.22
2023-06-11T17:17:56.120Z,31.10
2023-06-11T17:20:22.850Z,30.99
2023-06-11T17:22:51.682Z,30.89
2023-06-11T17:25:19.052Z,30.85
2023-06-11T17:27:45.916Z,30.72
2023-06-11T17:30:12.798Z,30.68
2023-06-11T17:32:39.807Z,30.61
2023-06-11T17:35:08.306Z,30.75
2023-06-11T17:37:34.948Z,30.78
2023-06-11T17:40:01.416Z,30.79
2023-06-11T17:42:28.003Z,30.78
2023-06-11T17:44:54.492Z,30.67
2023-06-11T17:47:21.145Z,30.61
2023-06-11T17:49:49.951Z,30.53
2023-06-11T17:52:16.908Z,30.54
2023-06-11T17:54:43.853Z,30.46
2023-06-11T17:57:11.414Z,30.26
2023-06-11T17:59:38.057Z,30.42
2023-06-11T18:02:04.927Z,30.43
2023-06-11T18:04:31.382Z,30.46
2023-06-11T18:06:57.834Z,30.43
2023-06-11T18:09:24.281Z,30.42
2023-06-11T18:11:50.766Z,30.32
2023-06-11T18:14:17.188Z,30.08
2023-06-11T18:16:43.814Z,30.16
2023-06-11T18:19:10.449Z,30.21
2023-06-11T18:21:36.899Z,30.03
2023-06-11T18:24:03.585Z,29.80
2023-06-11T18:26:30.392Z,29.61
2023-06-11T18:28:57.083Z,29.49
2023-06-11T18:31:24.869Z,29.37
2023-06-11T18:33:51.627Z,29.24
2023-06-11T18:36:18.310Z,29.13
2023-06-11T18:38:44.889Z,28.97
2023-06-11T18:41:11.548Z,28.73
2023-06-11T18:43:38.036Z,28.51
2023-06-11T18:46:04.603Z,28.47
2023-06-11T18:48:31.550Z,28.17
2023-06-11T18:50:58.202Z,27.90
2023-06-11T18:53:24.914Z,27.54
2023-06-11T18:55:51.373Z,27.02
2023-06-11T18:58:18.590Z,26.82
2023-06-11T19:00:45.281Z,26.46
2023-06-11T19:03:11.950Z,25.98
2023-06-11T19:05:38.548Z,25.71
2023-06-11T19:08:07.216Z,25.39
2023-06-11T19:10:35.263Z,25.08
2023-06-11T19:13:03.271Z,24.77
2023-06-11T19:15:30.104Z,24.32
2023-06-11T19:17:57.106Z,24.12
2023-06-11T19:20:27.361Z,24.02
2023-06-11T19:22:54.320Z,24.07
2023-06-11T19:25:21.123Z,23.57
2023-06-11T19:27:47.552Z,23.36
2023-06-11T19:30:15.523Z,23.20
2023-06-11T19:32:42.429Z,22.95
2023-06-11T19:35:09.207Z,22.84
2023-06-11T19:37:35.840Z,22.62
2023-06-11T19:40:02.542Z,22.47
2023-06-11T19:42:29.129Z,22.33
2023-06-11T19:44:56.707Z,22.15
2023-06-11T19:47:23.399Z,22.01
2023-06-11T19:49:50.106Z,21.90
2023-06-11T19:52:16.803Z,21.63
2023-06-11T19:54:51.345Z,21.66
2023-06-11T19:57:20.040Z,21.30
2023-06-11T19:59:48.044Z,21.40
2023-06-11T20:02:15.002Z,21.30
2023-06-11T20:04:41.696Z,21.18
2023-06-11T20:07:08.287Z,21.02
2023-06-11T20:09:35.711Z,20.97
2023-06-11T20:12:08.440Z,20.75
2023-06-11T20:14:36.455Z,20.77
2023-06-11T20:17:04.105Z,20.70
2023-06-11T20:19:30.801Z,20.60
2023-06-11T20:22:01.403Z,20.52
2023-06-11T20:24:28.309Z,20.33
2023-06-11T20:26:55.113Z,20.24
2023-06-11T20:29:22.936Z,20.24
2023-06-11T20:31:49.760Z,20.19
2023-06-11T20:34:17.419Z,20.12
2023-06-11T20:36:44.066Z,20.06
2023-06-11T20:39:10.720Z,19.91
2023-06-11T20:41:37.159Z,19.89
2023-06-11T20:44:04.088Z,19.83
2023-06-11T20:46:31.361Z,19.64
2023-06-11T20:48:58.192Z,19.69
2023-06-11T20:51:24.829Z,19.62
2023-06-11T20:53:51.305Z,19.54
2023-06-11T20:56:19.934Z,19.46
2023-06-11T20:58:46.719Z,19.39
2023-06-11T21:01:13.867Z,19.37
2023-06-11T21:03:40.679Z,19.31
2023-06-11T21:06:07.485Z,19.25
2023-06-11T21:08:34.031Z,19.21
2023-06-11T21:11:00.634Z,19.14
2023-06-11T21:13:27.188Z,19.05
2023-06-11T21:15:53.718Z,19.03
2023-06-11T21:18:20.387Z,19.00
2023-06-11T21:20:47.124Z,18.96
2023-06-11T21:23:13.637Z,18.88
2023-06-11T21:25:40.074Z,18.87
2023-06-11T21:28:06.543Z,18.80
2023-06-11T21:30:32.983Z,18.75
2023-06-11T21:32:59.471Z,18.69
2023-06-11T21:35:25.979Z,18.64
2023-06-11T21:37:52.432Z,18.49
2023-06-11T21:40:18.915Z,18.54
2023-06-11T21:42:45.406Z,18.48
2023-06-11T21:45:12.007Z,18.41
2023-06-11T21:47:38.669Z,18.40
2023-06-11T21:50:07.103Z,18.31
2023-06-11T21:52:34.437Z,18.23
2023-06-11T21:55:01.843Z,18.27
2023-06-11T21:57:29.075Z,18.20
2023-06-11T21:59:55.725Z,18.19
2023-06-11T22:02:22.232Z,18.13
2023-06-11T22:04:49.813Z,18.09
2023-06-11T22:07:18.721Z,17.98
2023-06-11T22:09:45.671Z,17.99
2023-06-11T22:12:12.435Z,17.96
2023-06-11T22:14:38.999Z,17.92
2023-06-11T22:17:05.644Z,17.89
2023-06-11T22:19:37.934Z,17.85
2023-06-11T22:22:11.602Z,17.79
2023-06-11T22:24:38.882Z,17.79
2023-06-11T22:27:08.769Z,17.77
2023-06-11T22:29:35.295Z,17.68
2023-06-11T22:32:02.173Z,17.69
2023-06-11T22:34:28.761Z,17.66
2023-06-11T22:36:55.337Z,17.61
2023-06-11T22:39:21.821Z,17.58
2023-06-11T22:41:48.313Z,17.43
2023-06-11T22:44:14.836Z,17.54
2023-06-11T22:46:41.357Z,17.50
2023-06-11T22:49:08.850Z,17.45
2023-06-11T22:51:37.499Z,17.38
2023-06-11T22:54:05.121Z,17.42
2023-06-11T22:56:31.808Z,17.34
2023-06-11T22:58:58.357Z,17.34
2023-06-11T23:01:26.235Z,17.30
2023-06-11T23:03:52.981Z,17.21
2023-06-11T23:06:19.687Z,17.18
2023-06-11T23:08:46.147Z,17.04
2023-06-11T23:11:12.718Z,16.98
2023-06-11T23:13:39.196Z,17.05
2023-06-11T23:16:06.183Z,17.06
2023-06-11T23:18:32.869Z,17.02
2023-06-11T23:20:59.421Z,16.71
2023-06-11T23:23:26.364Z,16.93
2023-06-11T23:25:53.897Z,16.87
2023-06-11T23:28:23.612Z,16.79
2023-06-11T23:30:51.766Z,16.80
2023-06-11T23:33:18.400Z,16.74
2023-06-11T23:35:45.261Z,16.67
2023-06-11T23:38:11.730Z,16.64
2023-06-11T23:40:38.202Z,16.60
2023-06-11T23:43:05.117Z,16.50
2023-06-11T23:45:31.756Z,16.49
2023-06-11T23:47:58.283Z,16.46
2023-06-11T23:50:24.790Z,16.40
2023-06-11T23:52:51.789Z,16.22
2023-06-11T23:55:19.337Z,16.36
2023-06-11T23:58:07.784Z,16.34
